sensor_id;sensor_type;location;lat;lon;timestamp;P1;durP1;ratioP1;P2;durP2;ratioP2
16282;SDS011;8249;48.708;9.030;2023-03-14T00:00:02;1.40;;;1.40;;
16282;SDS011;8249;48.708;9.030;2023-03-14T00:02:35;1.37;;;1.37;;
16282;SDS011;8249;48.708;9.030;2023-03-14T00:05:01;1.53;;;1.53;;
16282;SDS011;8249;48.708;9.030;2023-03-14T00:07:33;1.60;;;1.60;;
16282;SDS011;8249;48.708;9.030;2023-03-14T00:10:02;1.80;;;1.80;;
16282;SDS011;8249;48.708;9.030;2023-03-14T00:12:30;1.53;;;1.53;;
16282;SDS011;8249;48.708;9.030;2023-03-14T00:14:58;1.40;;;1.40;;
16282;SDS011;8249;48.708;9.030;2023-03-14T00:17:28;1.53;;;1.53;;
16282;SDS011;8249;48.708;9.030;2023-03-14T00:19:56;1.50;;;1.50;;
16282;SDS011;8249;48.708;9.030;2023-03-14T00:22:29;1.50;;;1.50;;
16282;SDS011;8249;48.708;9.030;2023-03-14T00:24:57;1.40;;;1.40;;
16282;SDS011;8249;48.708;9.030;2023-03-14T00:27:24;1.50;;;1.50;;
16282;SDS011;8249;48.708;9.030;2023-03-14T00:29:51;1.33;;;1.33;;
16282;SDS011;8249;48.708;9.030;2023-03-14T00:32:18;1.50;;;1.50;;
16282;SDS011;8249;48.708;9.030;2023-03-14T00:34:45;1.40;;;1.40;;
16282;SDS011;8249;48.708;9.030;2023-03-14T00:37:12;1.70;;;1.70;;
16282;SDS011;8249;48.708;9.030;2023-03-14T00:39:39;1.57;;;1.47;;
16282;SDS011;8249;48.708;9.030;2023-03-14T00:42:08;1.70;;;1.70;;
16282;SDS011;8249;48.708;9.030;2023-03-14T00:44:35;1.53;;;1.53;;
16282;SDS011;8249;48.708;9.030;2023-03-14T00:47:05;1.27;;;1.27;;
16282;SDS011;8249;48.708;9.030;2023-03-14T00:49:33;1.50;;;1.50;;
16282;SDS011;8249;48.708;9.030;2023-03-14T00:52:00;1.40;;;1.40;;
16282;SDS011;8249;48.708;9.030;2023-03-14T00:54:27;1.23;;;1.23;;
16282;SDS011;8249;48.708;9.030;2023-03-14T00:56:54;1.90;;;1.80;;
16282;SDS011;8249;48.708;9.030;2023-03-14T00:59:23;1.63;;;1.63;;
16282;SDS011;8249;48.708;9.030;2023-03-14T01:01:50;1.13;;;1.13;;
16282;SDS011;8249;48.708;9.030;2023-03-14T01:04:18;1.33;;;1.33;;
16282;SDS011;8249;48.708;9.030;2023-03-14T01:06:45;1.40;;;1.40;;
16282;SDS011;8249;48.708;9.030;2023-03-14T01:09:12;1.60;;;1.60;;
16282;SDS011;8249;48.708;9.030;2023-03-14T01:11:38;1.43;;;1.43;;
16282;SDS011;8249;48.708;9.030;2023-03-14T01:14:06;1.23;;;1.23;;
16282;SDS011;8249;48.708;9.030;2023-03-14T01:16:35;1.33;;;1.33;;
16282;SDS011;8249;48.708;9.030;2023-03-14T01:19:02;1.40;;;1.40;;
16282;SDS011;8249;48.708;9.030;2023-03-14T01:21:30;1.50;;;1.50;;
16282;SDS011;8249;48.708;9.030;2023-03-14T01:23:59;1.20;;;1.20;;
16282;SDS011;8249;48.708;9.030;2023-03-14T01:26:27;1.30;;;1.30;;
16282;SDS011;8249;48.708;9.030;2023-03-14T01:28:57;1.77;;;1.77;;
16282;SDS011;8249;48.708;9.030;2023-03-14T01:31:25;1.20;;;1.20;;
16282;SDS011;8249;48.708;9.030;2023-03-14T01:33:55;1.37;;;1.37;;
16282;SDS011;8249;48.708;9.030;2023-03-14T01:36:22;1.53;;;1.53;;
16282;SDS011;8249;48.708;9.030;2023-03-14T01:38:49;1.30;;;1.30;;
16282;SDS011;8249;48.708;9.030;2023-03-14T01:41:18;1.63;;;1.53;;
16282;SDS011;8249;48.708;9.030;2023-03-14T01:43:46;1.40;;;1.40;;
16282;SDS011;8249;48.708;9.030;2023-03-14T01:46:34;1.90;;;1.90;;
16282;SDS011;8249;48.708;9.030;2023-03-14T01:51:59;2.43;;;2.43;;
16282;SDS011;8249;48.708;9.030;2023-03-14T01:54:28;2.03;;;2.03;;
16282;SDS011;8249;48.708;9.030;2023-03-14T01:57:01;2.03;;;2.03;;
16282;SDS011;8249;48.708;9.030;2023-03-14T01:59:33;2.03;;;2.03;;
16282;SDS011;8249;48.708;9.030;2023-03-14T02:02:02;2.00;;;1.97;;
16282;SDS011;8249;48.708;9.030;2023-03-14T02:04:34;2.43;;;2.43;;
16282;SDS011;8249;48.708;9.030;2023-03-14T02:07:05;2.33;;;2.33;;
16282;SDS011;8249;48.708;9.030;2023-03-14T02:09:40;2.17;;;2.17;;
16282;SDS011;8249;48.708;9.030;2023-03-14T02:12:14;1.67;;;1.67;;
16282;SDS011;8249;48.708;9.030;2023-03-14T02:14:47;2.07;;;2.07;;
16282;SDS011;8249;48.708;9.030;2023-03-14T02:17:46;1.87;;;1.87;;
16282;SDS011;8249;48.708;9.030;2023-03-14T02:20:33;2.37;;;2.37;;
16282;SDS011;8249;48.708;9.030;2023-03-14T02:23:03;2.03;;;2.03;;
16282;SDS011;8249;48.708;9.030;2023-03-14T02:25:35;1.77;;;1.77;;
16282;SDS011;8249;48.708;9.030;2023-03-14T02:28:08;1.77;;;1.77;;
16282;SDS011;8249;48.708;9.030;2023-03-14T02:30:37;1.53;;;1.53;;
16282;SDS011;8249;48.708;9.030;2023-03-14T02:33:05;1.70;;;1.70;;
16282;SDS011;8249;48.708;9.030;2023-03-14T02:35:35;1.63;;;1.63;;
16282;SDS011;8249;48.708;9.030;2023-03-14T02:38:09;1.50;;;1.50;;
16282;SDS011;8249;48.708;9.030;2023-03-14T02:40:43;1.40;;;1.40;;
16282;SDS011;8249;48.708;9.030;2023-03-14T02:43:12;1.80;;;1.80;;
16282;SDS011;8249;48.708;9.030;2023-03-14T02:45:44;1.50;;;1.50;;
16282;SDS011;8249;48.708;9.030;2023-03-14T02:48:15;1.83;;;1.83;;
16282;SDS011;8249;48.708;9.030;2023-03-14T02:50:45;1.70;;;1.70;;
16282;SDS011;8249;48.708;9.030;2023-03-14T02:53:16;2.03;;;2.03;;
16282;SDS011;8249;48.708;9.030;2023-03-14T02:55:45;1.60;;;1.60;;
16282;SDS011;8249;48.708;9.030;2023-03-14T02:58:17;2.47;;;2.27;;
16282;SDS011;8249;48.708;9.030;2023-03-14T03:00:48;2.87;;;2.77;;
16282;SDS011;8249;48.708;9.030;2023-03-14T03:03:16;2.23;;;2.23;;
16282;SDS011;8249;48.708;9.030;2023-03-14T03:05:43;2.00;;;2.00;;
16282;SDS011;8249;48.708;9.030;2023-03-14T03:08:13;2.53;;;2.53;;
16282;SDS011;8249;48.708;9.030;2023-03-14T03:10:40;3.10;;;3.10;;
16282;SDS011;8249;48.708;9.030;2023-03-14T03:13:07;2.63;;;2.63;;
16282;SDS011;8249;48.708;9.030;2023-03-14T03:15:36;2.77;;;2.67;;
16282;SDS011;8249;48.708;9.030;2023-03-14T03:18:03;3.03;;;2.93;;
16282;SDS011;8249;48.708;9.030;2023-03-14T03:20:30;2.30;;;2.30;;
16282;SDS011;8249;48.708;9.030;2023-03-14T03:22:58;2.73;;;2.73;;
16282;SDS011;8249;48.708;9.030;2023-03-14T03:25:25;2.33;;;2.33;;
16282;SDS011;8249;48.708;9.030;2023-03-14T03:27:52;2.33;;;2.33;;
16282;SDS011;8249;48.708;9.030;2023-03-14T03:30:20;1.93;;;1.93;;
16282;SDS011;8249;48.708;9.030;2023-03-14T03:32:48;2.23;;;2.23;;
16282;SDS011;8249;48.708;9.030;2023-03-14T03:35:15;2.00;;;2.00;;
16282;SDS011;8249;48.708;9.030;2023-03-14T03:37:42;2.03;;;2.00;;
16282;SDS011;8249;48.708;9.030;2023-03-14T03:40:10;1.80;;;1.80;;
16282;SDS011;8249;48.708;9.030;2023-03-14T03:42:37;1.50;;;1.50;;
16282;SDS011;8249;48.708;9.030;2023-03-14T03:45:07;1.17;;;1.17;;
16282;SDS011;8249;48.708;9.030;2023-03-14T03:47:41;1.10;;;1.10;;
16282;SDS011;8249;48.708;9.030;2023-03-14T03:50:10;1.23;;;1.23;;
16282;SDS011;8249;48.708;9.030;2023-03-14T03:52:37;1.07;;;1.07;;
16282;SDS011;8249;48.708;9.030;2023-03-14T03:55:04;1.03;;;1.03;;
16282;SDS011;8249;48.708;9.030;2023-03-14T03:57:32;1.30;;;1.30;;
16282;SDS011;8249;48.708;9.030;2023-03-14T03:59:58;1.50;;;1.50;;
16282;SDS011;8249;48.708;9.030;2023-03-14T04:02:26;1.00;;;1.00;;
16282;SDS011;8249;48.708;9.030;2023-03-14T04:04:53;0.80;;;0.80;;
16282;SDS011;8249;48.708;9.030;2023-03-14T04:07:22;1.40;;;1.40;;
16282;SDS011;8249;48.708;9.030;2023-03-14T04:09:50;1.60;;;1.60;;
16282;SDS011;8249;48.708;9.030;2023-03-14T04:12:23;1.13;;;1.13;;
16282;SDS011;8249;48.708;9.030;2023-03-14T04:14:57;1.00;;;1.00;;
16282;SDS011;8249;48.708;9.030;2023-03-14T04:17:24;1.07;;;1.07;;
16282;SDS011;8249;48.708;9.030;2023-03-14T04:19:50;1.10;;;1.10;;
16282;SDS011;8249;48.708;9.030;2023-03-14T04:22:22;1.00;;;1.00;;
16282;SDS011;8249;48.708;9.030;2023-03-14T04:24:50;0.83;;;0.83;;
16282;SDS011;8249;48.708;9.030;2023-03-14T04:27:18;0.97;;;0.97;;
16282;SDS011;8249;48.708;9.030;2023-03-14T04:29:46;0.90;;;0.90;;
16282;SDS011;8249;48.708;9.030;2023-03-14T04:32:17;0.80;;;0.80;;
16282;SDS011;8249;48.708;9.030;2023-03-14T04:34:44;1.00;;;1.00;;
16282;SDS011;8249;48.708;9.030;2023-03-14T04:37:11;0.93;;;0.93;;
16282;SDS011;8249;48.708;9.030;2023-03-14T04:39:43;0.97;;;0.97;;
16282;SDS011;8249;48.708;9.030;2023-03-14T04:42:17;1.20;;;1.20;;
16282;SDS011;8249;48.708;9.030;2023-03-14T04:44:45;1.00;;;1.00;;
16282;SDS011;8249;48.708;9.030;2023-03-14T04:47:14;0.80;;;0.80;;
16282;SDS011;8249;48.708;9.030;2023-03-14T04:49:43;1.23;;;1.23;;
16282;SDS011;8249;48.708;9.030;2023-03-14T04:52:13;0.90;;;0.90;;
16282;SDS011;8249;48.708;9.030;2023-03-14T04:54:41;1.47;;;1.00;;
16282;SDS011;8249;48.708;9.030;2023-03-14T04:57:09;0.97;;;0.97;;
16282;SDS011;8249;48.708;9.030;2023-03-14T04:59:37;1.13;;;1.13;;
16282;SDS011;8249;48.708;9.030;2023-03-14T05:02:23;1.20;;;1.20;;
16282;SDS011;8249;48.708;9.030;2023-03-14T05:05:16;2.23;;;1.00;;
16282;SDS011;8249;48.708;9.030;2023-03-14T05:07:57;1.03;;;1.03;;
16282;SDS011;8249;48.708;9.030;2023-03-14T05:10:43;0.90;;;0.90;;
16282;SDS011;8249;48.708;9.030;2023-03-14T05:13:25;0.93;;;0.93;;
16282;SDS011;8249;48.708;9.030;2023-03-14T05:16:04;1.07;;;1.07;;
16282;SDS011;8249;48.708;9.030;2023-03-14T05:18:48;1.40;;;1.40;;
16282;SDS011;8249;48.708;9.030;2023-03-14T05:21:35;1.13;;;1.13;;
16282;SDS011;8249;48.708;9.030;2023-03-14T05:24:22;1.10;;;1.10;;
16282;SDS011;8249;48.708;9.030;2023-03-14T05:27:04;1.00;;;1.00;;
16282;SDS011;8249;48.708;9.030;2023-03-14T05:29:41;1.00;;;1.00;;
16282;SDS011;8249;48.708;9.030;2023-03-14T05:32:44;1.60;;;1.20;;
16282;SDS011;8249;48.708;9.030;2023-03-14T05:35:37;0.80;;;0.80;;
16282;SDS011;8249;48.708;9.030;2023-03-14T05:38:36;1.57;;;1.57;;
16282;SDS011;8249;48.708;9.030;2023-03-14T05:41:14;1.00;;;1.00;;
16282;SDS011;8249;48.708;9.030;2023-03-14T05:43:59;1.53;;;1.53;;
16282;SDS011;8249;48.708;9.030;2023-03-14T05:46:44;1.00;;;1.00;;
16282;SDS011;8249;48.708;9.030;2023-03-14T05:49:22;1.33;;;1.33;;
16282;SDS011;8249;48.708;9.030;2023-03-14T05:51:56;1.33;;;1.33;;
16282;SDS011;8249;48.708;9.030;2023-03-14T05:54:40;0.83;;;0.83;;
16282;SDS011;8249;48.708;9.030;2023-03-14T05:57:27;1.40;;;1.30;;
16282;SDS011;8249;48.708;9.030;2023-03-14T06:00:13;1.23;;;1.23;;
16282;SDS011;8249;48.708;9.030;2023-03-14T06:02:55;1.10;;;1.10;;
16282;SDS011;8249;48.708;9.030;2023-03-14T06:05:28;0.83;;;0.83;;
16282;SDS011;8249;48.708;9.030;2023-03-14T06:07:59;1.40;;;1.40;;
16282;SDS011;8249;48.708;9.030;2023-03-14T06:10:28;1.03;;;1.03;;
16282;SDS011;8249;48.708;9.030;2023-03-14T06:12:55;1.20;;;1.20;;
16282;SDS011;8249;48.708;9.030;2023-03-14T06:15:22;1.10;;;1.10;;
16282;SDS011;8249;48.708;9.030;2023-03-14T06:17:53;0.93;;;0.93;;
16282;SDS011;8249;48.708;9.030;2023-03-14T06:20:21;3.33;;;1.57;;
16282;SDS011;8249;48.708;9.030;2023-03-14T06:22:49;1.17;;;1.17;;
16282;SDS011;8249;48.708;9.030;2023-03-14T06:25:16;0.90;;;0.90;;
16282;SDS011;8249;48.708;9.030;2023-03-14T06:27:45;1.00;;;1.00;;
16282;SDS011;8249;48.708;9.030;2023-03-14T06:30:14;1.53;;;1.50;;
16282;SDS011;8249;48.708;9.030;2023-03-14T06:32:41;1.00;;;1.00;;
16282;SDS011;8249;48.708;9.030;2023-03-14T06:35:11;0.90;;;0.90;;
16282;SDS011;8249;48.708;9.030;2023-03-14T06:37:42;1.67;;;1.67;;
16282;SDS011;8249;48.708;9.030;2023-03-14T06:40:09;1.00;;;1.00;;
16282;SDS011;8249;48.708;9.030;2023-03-14T06:42:58;1.43;;;1.43;;
16282;SDS011;8249;48.708;9.030;2023-03-14T06:45:27;0.90;;;0.90;;
16282;SDS011;8249;48.708;9.030;2023-03-14T06:47:56;1.73;;;1.63;;
16282;SDS011;8249;48.708;9.030;2023-03-14T06:50:30;0.80;;;0.80;;
16282;SDS011;8249;48.708;9.030;2023-03-14T06:52:59;0.90;;;0.90;;
16282;SDS011;8249;48.708;9.030;2023-03-14T06:55:26;1.50;;;1.40;;
16282;SDS011;8249;48.708;9.030;2023-03-14T06:57:53;1.17;;;1.17;;
16282;SDS011;8249;48.708;9.030;2023-03-14T07:00:21;1.30;;;1.30;;
16282;SDS011;8249;48.708;9.030;2023-03-14T07:02:52;0.90;;;0.90;;
16282;SDS011;8249;48.708;9.030;2023-03-14T07:05:32;1.10;;;1.10;;
16282;SDS011;8249;48.708;9.030;2023-03-14T07:08:00;1.30;;;1.30;;
16282;SDS011;8249;48.708;9.030;2023-03-14T07:10:27;1.00;;;1.00;;
16282;SDS011;8249;48.708;9.030;2023-03-14T07:12:54;1.10;;;1.10;;
16282;SDS011;8249;48.708;9.030;2023-03-14T07:15:25;1.07;;;1.07;;
16282;SDS011;8249;48.708;9.030;2023-03-14T07:17:56;1.20;;;1.20;;
16282;SDS011;8249;48.708;9.030;2023-03-14T07:20:24;1.13;;;1.13;;
16282;SDS011;8249;48.708;9.030;2023-03-14T07:22:51;1.20;;;1.20;;
16282;SDS011;8249;48.708;9.030;2023-03-14T07:25:31;1.00;;;1.00;;
16282;SDS011;8249;48.708;9.030;2023-03-14T07:27:58;0.80;;;0.80;;
16282;SDS011;8249;48.708;9.030;2023-03-14T07:30:25;0.80;;;0.80;;
16282;SDS011;8249;48.708;9.030;2023-03-14T07:32:53;0.90;;;0.90;;
16282;SDS011;8249;48.708;9.030;2023-03-14T07:35:23;0.90;;;0.90;;
16282;SDS011;8249;48.708;9.030;2023-03-14T07:37:50;0.80;;;0.80;;
16282;SDS011;8249;48.708;9.030;2023-03-14T07:40:24;1.30;;;1.30;;
16282;SDS011;8249;48.708;9.030;2023-03-14T07:42:52;0.87;;;0.87;;
16282;SDS011;8249;48.708;9.030;2023-03-14T07:45:27;2.30;;;1.10;;
16282;SDS011;8249;48.708;9.030;2023-03-14T07:47:54;0.97;;;0.97;;
16282;SDS011;8249;48.708;9.030;2023-03-14T07:50:22;0.90;;;0.90;;
16282;SDS011;8249;48.708;9.030;2023-03-14T07:52:49;0.93;;;0.93;;
16282;SDS011;8249;48.708;9.030;2023-03-14T07:55:16;0.90;;;0.90;;
16282;SDS011;8249;48.708;9.030;2023-03-14T07:57:43;1.00;;;1.00;;
16282;SDS011;8249;48.708;9.030;2023-03-14T08:00:12;1.70;;;1.00;;
16282;SDS011;8249;48.708;9.030;2023-03-14T08:02:40;0.83;;;0.83;;
16282;SDS011;8249;48.708;9.030;2023-03-14T08:05:07;0.93;;;0.93;;
16282;SDS011;8249;48.708;9.030;2023-03-14T08:07:35;0.90;;;0.90;;
16282;SDS011;8249;48.708;9.030;2023-03-14T08:10:03;1.00;;;1.00;;
16282;SDS011;8249;48.708;9.030;2023-03-14T08:12:30;0.70;;;0.70;;
16282;SDS011;8249;48.708;9.030;2023-03-14T08:14:57;1.30;;;1.03;;
16282;SDS011;8249;48.708;9.030;2023-03-14T08:17:26;1.63;;;1.53;;
16282;SDS011;8249;48.708;9.030;2023-03-14T08:19:53;0.97;;;0.97;;
16282;SDS011;8249;48.708;9.030;2023-03-14T08:22:20;1.00;;;1.00;;
16282;SDS011;8249;48.708;9.030;2023-03-14T08:24:47;0.93;;;0.93;;
16282;SDS011;8249;48.708;9.030;2023-03-14T08:27:14;1.00;;;1.00;;
16282;SDS011;8249;48.708;9.030;2023-03-14T08:29:41;0.80;;;0.80;;
16282;SDS011;8249;48.708;9.030;2023-03-14T08:32:08;1.27;;;1.20;;
16282;SDS011;8249;48.708;9.030;2023-03-14T08:34:37;0.70;;;0.70;;
16282;SDS011;8249;48.708;9.030;2023-03-14T08:37:04;0.90;;;0.90;;
16282;SDS011;8249;48.708;9.030;2023-03-14T08:39:31;0.90;;;0.90;;
16282;SDS011;8249;48.708;9.030;2023-03-14T08:41:58;1.07;;;1.07;;
16282;SDS011;8249;48.708;9.030;2023-03-14T08:44:25;0.80;;;0.80;;
16282;SDS011;8249;48.708;9.030;2023-03-14T08:46:52;0.70;;;0.70;;
16282;SDS011;8249;48.708;9.030;2023-03-14T08:49:19;0.83;;;0.83;;
16282;SDS011;8249;48.708;9.030;2023-03-14T08:51:48;1.00;;;1.00;;
16282;SDS011;8249;48.708;9.030;2023-03-14T08:54:14;0.90;;;0.90;;
16282;SDS011;8249;48.708;9.030;2023-03-14T08:56:42;0.90;;;0.90;;
16282;SDS011;8249;48.708;9.030;2023-03-14T08:59:08;0.90;;;0.90;;
16282;SDS011;8249;48.708;9.030;2023-03-14T09:01:36;0.80;;;0.80;;
16282;SDS011;8249;48.708;9.030;2023-03-14T09:04:03;0.90;;;0.90;;
16282;SDS011;8249;48.708;9.030;2023-03-14T09:06:30;0.93;;;0.93;;
16282;SDS011;8249;48.708;9.030;2023-03-14T09:08:58;0.80;;;0.80;;
16282;SDS011;8249;48.708;9.030;2023-03-14T09:11:25;0.90;;;0.90;;
16282;SDS011;8249;48.708;9.030;2023-03-14T09:13:52;1.13;;;1.13;;
16282;SDS011;8249;48.708;9.030;2023-03-14T09:16:19;0.87;;;0.87;;
16282;SDS011;8249;48.708;9.030;2023-03-14T09:18:46;0.90;;;0.90;;
16282;SDS011;8249;48.708;9.030;2023-03-14T09:21:13;0.90;;;0.90;;
16282;SDS011;8249;48.708;9.030;2023-03-14T09:23:40;1.00;;;1.00;;
16282;SDS011;8249;48.708;9.030;2023-03-14T09:26:09;1.60;;;1.60;;
16282;SDS011;8249;48.708;9.030;2023-03-14T09:28:35;1.00;;;1.00;;
16282;SDS011;8249;48.708;9.030;2023-03-14T09:31:06;0.90;;;0.90;;
16282;SDS011;8249;48.708;9.030;2023-03-14T09:33:34;0.97;;;0.97;;
16282;SDS011;8249;48.708;9.030;2023-03-14T09:36:02;0.80;;;0.80;;
16282;SDS011;8249;48.708;9.030;2023-03-14T09:38:29;1.00;;;1.00;;
16282;SDS011;8249;48.708;9.030;2023-03-14T09:40:58;0.97;;;0.97;;
16282;SDS011;8249;48.708;9.030;2023-03-14T09:43:29;0.83;;;0.83;;
16282;SDS011;8249;48.708;9.030;2023-03-14T09:45:59;1.50;;;0.87;;
16282;SDS011;8249;48.708;9.030;2023-03-14T09:48:29;0.97;;;0.97;;
16282;SDS011;8249;48.708;9.030;2023-03-14T09:50:59;1.00;;;1.00;;
16282;SDS011;8249;48.708;9.030;2023-03-14T09:53:35;0.80;;;0.80;;
16282;SDS011;8249;48.708;9.030;2023-03-14T09:56:07;0.93;;;0.93;;
16282;SDS011;8249;48.708;9.030;2023-03-14T09:58:39;0.93;;;0.93;;
16282;SDS011;8249;48.708;9.030;2023-03-14T10:01:09;0.90;;;0.90;;
16282;SDS011;8249;48.708;9.030;2023-03-14T10:03:39;0.90;;;0.90;;
16282;SDS011;8249;48.708;9.030;2023-03-14T10:06:10;0.97;;;0.97;;
16282;SDS011;8249;48.708;9.030;2023-03-14T10:08:39;0.70;;;0.70;;
16282;SDS011;8249;48.708;9.030;2023-03-14T10:11:09;0.70;;;0.70;;
16282;SDS011;8249;48.708;9.030;2023-03-14T10:13:48;0.83;;;0.83;;
16282;SDS011;8249;48.708;9.030;2023-03-14T10:16:16;5.47;;;0.90;;
16282;SDS011;8249;48.708;9.030;2023-03-14T10:18:46;0.73;;;0.73;;
16282;SDS011;8249;48.708;9.030;2023-03-14T10:21:21;0.80;;;0.80;;
16282;SDS011;8249;48.708;9.030;2023-03-14T10:23:52;0.70;;;0.70;;
16282;SDS011;8249;48.708;9.030;2023-03-14T10:26:23;1.00;;;1.00;;
16282;SDS011;8249;48.708;9.030;2023-03-14T10:29:00;0.80;;;0.80;;
16282;SDS011;8249;48.708;9.030;2023-03-14T10:31:35;0.80;;;0.80;;
16282;SDS011;8249;48.708;9.030;2023-03-14T10:34:15;1.00;;;1.00;;
16282;SDS011;8249;48.708;9.030;2023-03-14T10:36:46;0.87;;;0.80;;
16282;SDS011;8249;48.708;9.030;2023-03-14T10:39:24;0.77;;;0.77;;
16282;SDS011;8249;48.708;9.030;2023-03-14T10:42:03;1.10;;;1.10;;
16282;SDS011;8249;48.708;9.030;2023-03-14T10:44:34;1.00;;;1.00;;
16282;SDS011;8249;48.708;9.030;2023-03-14T10:47:02;0.97;;;0.97;;
16282;SDS011;8249;48.708;9.030;2023-03-14T10:49:31;0.80;;;0.80;;
16282;SDS011;8249;48.708;9.030;2023-03-14T10:52:10;1.00;;;1.00;;
16282;SDS011;8249;48.708;9.030;2023-03-14T10:54:40;0.87;;;0.87;;
16282;SDS011;8249;48.708;9.030;2023-03-14T10:57:10;0.80;;;0.80;;
16282;SDS011;8249;48.708;9.030;2023-03-14T10:59:39;0.80;;;0.80;;
16282;SDS011;8249;48.708;9.030;2023-03-14T11:02:14;0.90;;;0.90;;
16282;SDS011;8249;48.708;9.030;2023-03-14T11:04:55;1.00;;;1.00;;
16282;SDS011;8249;48.708;9.030;2023-03-14T11:07:30;0.90;;;0.90;;
16282;SDS011;8249;48.708;9.030;2023-03-14T11:10:02;0.80;;;0.80;;
16282;SDS011;8249;48.708;9.030;2023-03-14T11:12:39;0.97;;;0.97;;
16282;SDS011;8249;48.708;9.030;2023-03-14T11:15:15;0.83;;;0.83;;
16282;SDS011;8249;48.708;9.030;2023-03-14T11:17:49;0.90;;;0.90;;
16282;SDS011;8249;48.708;9.030;2023-03-14T11:20:33;0.97;;;0.97;;
16282;SDS011;8249;48.708;9.030;2023-03-14T11:23:07;0.90;;;0.90;;
16282;SDS011;8249;48.708;9.030;2023-03-14T11:25:41;1.00;;;1.00;;
16282;SDS011;8249;48.708;9.030;2023-03-14T11:28:17;0.90;;;0.90;;
16282;SDS011;8249;48.708;9.030;2023-03-14T11:30:51;0.90;;;0.90;;
16282;SDS011;8249;48.708;9.030;2023-03-14T11:33:21;0.90;;;0.90;;
16282;SDS011;8249;48.708;9.030;2023-03-14T11:35:53;0.70;;;0.70;;
16282;SDS011;8249;48.708;9.030;2023-03-14T11:38:29;0.93;;;0.93;;
16282;SDS011;8249;48.708;9.030;2023-03-14T11:40:59;1.00;;;1.00;;
16282;SDS011;8249;48.708;9.030;2023-03-14T11:43:28;0.90;;;0.90;;
16282;SDS011;8249;48.708;9.030;2023-03-14T11:46:01;0.80;;;0.80;;
16282;SDS011;8249;48.708;9.030;2023-03-14T11:48:35;1.07;;;1.07;;
16282;SDS011;8249;48.708;9.030;2023-03-14T11:51:07;0.80;;;0.80;;
16282;SDS011;8249;48.708;9.030;2023-03-14T11:53:42;0.80;;;0.80;;
16282;SDS011;8249;48.708;9.030;2023-03-14T11:56:16;1.00;;;1.00;;
16282;SDS011;8249;48.708;9.030;2023-03-14T11:58:51;0.90;;;0.90;;
16282;SDS011;8249;48.708;9.030;2023-03-14T12:01:27;0.83;;;0.83;;
16282;SDS011;8249;48.708;9.030;2023-03-14T12:04:01;0.90;;;0.90;;
16282;SDS011;8249;48.708;9.030;2023-03-14T12:06:35;0.83;;;0.83;;
16282;SDS011;8249;48.708;9.030;2023-03-14T12:09:11;0.97;;;0.97;;
16282;SDS011;8249;48.708;9.030;2023-03-14T12:11:40;1.20;;;1.20;;
16282;SDS011;8249;48.708;9.030;2023-03-14T12:14:21;1.10;;;1.10;;
16282;SDS011;8249;48.708;9.030;2023-03-14T12:16:54;1.20;;;1.10;;
16282;SDS011;8249;48.708;9.030;2023-03-14T12:19:27;0.90;;;0.90;;
16282;SDS011;8249;48.708;9.030;2023-03-14T12:22:23;0.87;;;0.87;;
16282;SDS011;8249;48.708;9.030;2023-03-14T12:24:55;0.90;;;0.90;;
16282;SDS011;8249;48.708;9.030;2023-03-14T12:30:30;0.80;;;0.80;;
16282;SDS011;8249;48.708;9.030;2023-03-14T12:33:27;0.80;;;0.80;;
16282;SDS011;8249;48.708;9.030;2023-03-14T12:36:11;0.90;;;0.90;;
16282;SDS011;8249;48.708;9.030;2023-03-14T12:39:05;0.80;;;0.80;;
16282;SDS011;8249;48.708;9.030;2023-03-14T12:41:40;0.70;;;0.70;;
16282;SDS011;8249;48.708;9.030;2023-03-14T12:50:24;0.97;;;0.97;;
16282;SDS011;8249;48.708;9.030;2023-03-14T12:53:05;0.90;;;0.90;;
16282;SDS011;8249;48.708;9.030;2023-03-14T12:55:56;0.90;;;0.90;;
16282;SDS011;8249;48.708;9.030;2023-03-14T12:58:30;0.80;;;0.80;;
16282;SDS011;8249;48.708;9.030;2023-03-14T13:01:01;0.70;;;0.70;;
16282;SDS011;8249;48.708;9.030;2023-03-14T13:03:36;0.80;;;0.80;;
16282;SDS011;8249;48.708;9.030;2023-03-14T13:06:09;1.53;;;1.43;;
16282;SDS011;8249;48.708;9.030;2023-03-14T13:08:38;0.90;;;0.90;;
16282;SDS011;8249;48.708;9.030;2023-03-14T13:11:08;0.97;;;0.97;;
16282;SDS011;8249;48.708;9.030;2023-03-14T13:13:41;0.73;;;0.73;;
16282;SDS011;8249;48.708;9.030;2023-03-14T13:16:12;0.80;;;0.80;;
16282;SDS011;8249;48.708;9.030;2023-03-14T13:18:43;0.90;;;0.90;;
16282;SDS011;8249;48.708;9.030;2023-03-14T13:21:13;1.10;;;1.10;;
16282;SDS011;8249;48.708;9.030;2023-03-14T13:23:53;0.90;;;0.90;;
16282;SDS011;8249;48.708;9.030;2023-03-14T13:26:22;1.00;;;1.00;;
16282;SDS011;8249;48.708;9.030;2023-03-14T13:28:51;0.80;;;0.80;;
16282;SDS011;8249;48.708;9.030;2023-03-14T13:31:21;4.87;;;1.50;;
16282;SDS011;8249;48.708;9.030;2023-03-14T13:33:56;1.00;;;1.00;;
16282;SDS011;8249;48.708;9.030;2023-03-14T13:36:28;1.00;;;1.00;;
16282;SDS011;8249;48.708;9.030;2023-03-14T13:38:56;0.90;;;0.90;;
16282;SDS011;8249;48.708;9.030;2023-03-14T13:41:24;1.33;;;1.33;;
16282;SDS011;8249;48.708;9.030;2023-03-14T13:43:52;1.00;;;1.00;;
16282;SDS011;8249;48.708;9.030;2023-03-14T13:46:27;1.13;;;1.10;;
16282;SDS011;8249;48.708;9.030;2023-03-14T13:48:54;1.50;;;1.40;;
16282;SDS011;8249;48.708;9.030;2023-03-14T13:51:25;0.97;;;0.97;;
16282;SDS011;8249;48.708;9.030;2023-03-14T13:53:58;0.93;;;0.93;;
16282;SDS011;8249;48.708;9.030;2023-03-14T13:56:25;0.83;;;0.83;;
16282;SDS011;8249;48.708;9.030;2023-03-14T13:58:54;2.33;;;1.10;;
16282;SDS011;8249;48.708;9.030;2023-03-14T14:01:22;1.10;;;1.10;;
16282;SDS011;8249;48.708;9.030;2023-03-14T14:03:51;1.00;;;1.00;;
16282;SDS011;8249;48.708;9.030;2023-03-14T14:06:28;1.00;;;1.00;;
16282;SDS011;8249;48.708;9.030;2023-03-14T14:08:59;1.20;;;1.20;;
16282;SDS011;8249;48.708;9.030;2023-03-14T14:11:32;1.00;;;1.00;;
16282;SDS011;8249;48.708;9.030;2023-03-14T14:14:04;1.10;;;1.00;;
16282;SDS011;8249;48.708;9.030;2023-03-14T14:16:37;1.10;;;1.10;;
16282;SDS011;8249;48.708;9.030;2023-03-14T14:19:04;1.20;;;1.20;;
16282;SDS011;8249;48.708;9.030;2023-03-14T14:21:31;1.60;;;1.50;;
16282;SDS011;8249;48.708;9.030;2023-03-14T14:23:59;1.00;;;1.00;;
16282;SDS011;8249;48.708;9.030;2023-03-14T14:26:27;1.10;;;1.10;;
16282;SDS011;8249;48.708;9.030;2023-03-14T14:29:02;1.23;;;1.23;;
16282;SDS011;8249;48.708;9.030;2023-03-14T14:31:30;1.03;;;1.03;;
16282;SDS011;8249;48.708;9.030;2023-03-14T14:33:58;1.10;;;1.10;;
16282;SDS011;8249;48.708;9.030;2023-03-14T14:36:27;0.90;;;0.90;;
16282;SDS011;8249;48.708;9.030;2023-03-14T14:38:58;1.30;;;1.30;;
16282;SDS011;8249;48.708;9.030;2023-03-14T14:41:30;1.00;;;1.00;;
16282;SDS011;8249;48.708;9.030;2023-03-14T14:43:59;1.20;;;1.20;;
16282;SDS011;8249;48.708;9.030;2023-03-14T14:46:30;1.00;;;1.00;;
16282;SDS011;8249;48.708;9.030;2023-03-14T14:49:01;4.70;;;1.63;;
16282;SDS011;8249;48.708;9.030;2023-03-14T14:51:32;0.93;;;0.93;;
16282;SDS011;8249;48.708;9.030;2023-03-14T14:54:10;0.97;;;0.97;;
16282;SDS011;8249;48.708;9.030;2023-03-14T14:56:39;1.03;;;1.03;;
16282;SDS011;8249;48.708;9.030;2023-03-14T14:59:07;1.33;;;1.20;;
16282;SDS011;8249;48.708;9.030;2023-03-14T15:01:47;1.40;;;1.30;;
16282;SDS011;8249;48.708;9.030;2023-03-14T15:04:16;0.97;;;0.97;;
16282;SDS011;8249;48.708;9.030;2023-03-14T15:06:43;1.00;;;1.00;;
16282;SDS011;8249;48.708;9.030;2023-03-14T15:09:14;0.80;;;0.80;;
16282;SDS011;8249;48.708;9.030;2023-03-14T15:11:42;0.87;;;0.87;;
16282;SDS011;8249;48.708;9.030;2023-03-14T15:14:09;3.37;;;3.07;;
16282;SDS011;8249;48.708;9.030;2023-03-14T15:16:36;1.47;;;1.40;;
16282;SDS011;8249;48.708;9.030;2023-03-14T15:19:08;1.80;;;1.70;;
16282;SDS011;8249;48.708;9.030;2023-03-14T15:21:38;1.97;;;1.77;;
16282;SDS011;8249;48.708;9.030;2023-03-14T15:24:05;2.13;;;1.97;;
16282;SDS011;8249;48.708;9.030;2023-03-14T15:26:35;2.27;;;2.10;;
16282;SDS011;8249;48.708;9.030;2023-03-14T15:29:03;0.80;;;0.80;;
16282;SDS011;8249;48.708;9.030;2023-03-14T15:31:33;1.80;;;1.70;;
16282;SDS011;8249;48.708;9.030;2023-03-14T15:34:00;1.40;;;1.33;;
16282;SDS011;8249;48.708;9.030;2023-03-14T15:36:28;0.90;;;0.90;;